Airfield :
LOGIN :

Register | Disclaimer

   EN    FR    IT 

 










Legend :    VFR   Marginal VFR   IFR   Intensive IFR   Very Intensive IFR
Visi :
Ceiling :
>= 8 km
>= 3000ft
5 to 8 km
1000 to 3000 ft
1500m to 5 km
500 to 1000 ft
800 to 1500m
200 to 500 ft
< 800m
< 200 ft
Symbols :   Thunderstorms  Fog  Heavy snow  Heavy precipitations  Wind > 20 kt
SIGMETs :     Misc.  Thunderstorms  Icing  Turbulence  Mountain Waves  Volcanic Ashes






- Airport Elevation : 266 ft
- IATA code : HFT


ENHF - Hammerfest

CURRENT METAR :
  • 220850Z AUTO VRB03KT 9999 OVC028/// 11/07 Q1014 RMK WIND 1254FT 32013KT

EXPIRED METARs :
  • 220820Z AUTO VRB04KT 9999 BKN028/// 11/07 Q1014 RMK WIND 1254FT 32013KT
  • 220750Z AUTO VRB01KT 9999 FEW014/// SCT016/// OVC021/// 10/08 Q1013 RMK WIND 1254FT 32014KT
  • 220720Z AUTO VRB03KT 9999 OVC014/// 09/08 Q1013 REDZ RMK WIND 1254FT 32016KT
  • 220650Z AUTO 00000KT 9999 BKN013/// BKN017/// OVC023/// 09/08 Q1013 RMK WIND 1254FT 32016KT
  • 220620Z AUTO VRB02KT 9999 FEW009/// BKN011/// BKN015/// 09/08 Q1013 RMK WIND 1254FT 32016KT
  • 220550Z AUTO VRB02KT 9999 BKN018/// OVC023/// 09/08 Q1013 RMK WIND 1254FT 33016KT
  • 220520Z AUTO VRB02KT 9999 FEW014/// OVC021/// 10/08 Q1013 RMK WIND 1254FT 32015KT
  • 220450Z AUTO 06003KT 360V170 9999 BKN015/// OVC024/// 09/08 Q1013 RMK WIND 1254FT 32016KT
  • 220420Z AUTO VRB01KT 9999 OVC016/// 09/08 Q1012 RMK WIND 1254FT 32017KT
  • 220350Z AUTO VRB03KT 9999 OVC015/// 09/08 Q1012 REDZ RMK WIND 1254FT 32017KT

TAF TAF ENHF
Valid from the 22 at 09:00 until the 22 at 18:00 UTC


220800Z 2209/2218 34005KT 9999 BKN018
TEMPO 2209/2212 BKN012



MET'MAP, your aeronautical weather chart ! - Copyright ORBIFLY December 2007 - Disclaimer

ORBIFLY MET'MAP TEAM :

Programming & Development : Alexandra Zaïnal
Original concept : Baudouin d'Aumeries
Technical & hardware support : Manuel Goepfert
Assistance : Marc-Olivier Méhu




SOURCES & CREDITS :

   NOAA